Schrunz, Liechtenstein
Current Conditions -  °F | °C
As of 8:20 AM on Wednesday 22 Oct 2014 (Local Time) from LSZR Reporting Station
Rain Showers Rain Showers  
Wind Chill: 37°   Ceiling: 5000
Heat Index: 43°   Visibility: 6mi
Dew Point: 37°   Wind: 12mph
Humidity: 81%   Direction: 260°W
Pressure: 30.06"   Gusts: NA
Location:  47.08°N, 9.93°E
Report Text: LSZR 220620Z 26010KT 220V290 9999 -SHRA SCT025 BKN050 06/03 Q1018 NOSIG RMK C
Loading
Personal Weather Stations






























Interactive Weather Map
Tropical Storm Tracking
New forecast layout! Learn more

10-Day Weather Forecast

Advertisements
Track Severe Weather on mobile